This is the latest recevied weather packets stored in our database for station/object N5ZP. If no packets are shown the sender has not sent any weather packets the latest 10 day(s).
| Time | Temp. | Humidity | Pressure | Rain* | Wind** | Luminosity | Snow |
|---|---|---|---|---|---|---|---|
| 1777742564 | 25° C | 40% | 1019.4 hPa | 0 mm | - | 759 W/m² | - |
| 1777742260 | 24.44° C | 43% | 1019.6 hPa | 0 mm | - | 755 W/m² | - |
| 1777741958 | 24.44° C | 38% | 1019.7 hPa | 0 mm | - | 751 W/m² | - |
| 1777741655 | 25° C | 36% | 1019.8 hPa | 0 mm | - | 746 W/m² | - |
| 1777741351 | 24.44° C | 42% | 1019.5 hPa | 0 mm | - | 738 W/m² | - |
| 1777741047 | 23.33° C | 47% | 1019.8 hPa | 0 mm | - | 733 W/m² | - |
| 1777740745 | 24.44° C | 37% | 1019.8 hPa | 0 mm | - | 726 W/m² | - |
| 1777740441 | 23.33° C | 48% | 1019.7 hPa | 0 mm | - | 709 W/m² | - |
| 1777740139 | 23.33° C | 48% | 1019.7 hPa | 0 mm | - | 709 W/m² | - |
| 1777739834 | 22.78° C | 40% | 1020 hPa | 0 mm | - | 702 W/m² | - |
| 1777739531 | 23.33° C | 41% | 1019.7 hPa | 0 mm | - | 694 W/m² | - |
| 1777739228 | 23.89° C | 40% | 1019.8 hPa | 0 mm | - | 685 W/m² | - |
| 1777738924 | 23.33° C | 49% | 1019.6 hPa | 0 mm | - | 673 W/m² | - |
| 1777738622 | 23.89° C | 42% | 1019.6 hPa | 0 mm | - | 662 W/m² | - |
| 1777738318 | 22.78° C | 53% | 1019.6 hPa | 0 mm | - | 651 W/m² | - |
| 1777738016 | 22.78° C | 51% | 1019.7 hPa | 0 mm | - | 642 W/m² | - |
| 1777737715 | 22.78° C | 53% | 1019.6 hPa | 0 mm | - | 624 W/m² | - |
| 1777737413 | 22.78° C | 51% | 1019.5 hPa | 0 mm | - | 617 W/m² | - |
| 1777737110 | 22.78° C | 57% | 1019.7 hPa | 0 mm | - | 598 W/m² | - |
| 1777736806 | 22.78° C | 57% | 1019.6 hPa | 0 mm | - | 595 W/m² | - |
| 1777736165 | 22.22° C | 57% | 1019.4 hPa | 0 mm | - | 566 W/m² | - |
| 1777735863 | 21.67° C | 60% | 1019.6 hPa | 0 mm | - | 558 W/m² | - |
| 1777735560 | 21.67° C | 61% | 1019.6 hPa | 0 mm | - | 543 W/m² | - |
| 1777735257 | 21.67° C | 59% | 1019.2 hPa | 0 mm | - | 527 W/m² | - |
| 1777734954 | 22.22° C | 59% | 1019.5 hPa | 0 mm | - | 512 W/m² | - |
* Rain latest hour (hover to see other rain measurements)
** Current wind speed in m/s (hover to see current wind gust speed)